createdAt,value
2018-12-29T00:02:28.603Z,2.49
2018-12-29T00:07:42.612Z,2.48
2018-12-29T00:12:50.257Z,2.24
2018-12-29T00:18:04.307Z,2.42
2018-12-29T00:23:12.658Z,2.28
2018-12-29T00:28:26.699Z,2.43
2018-12-29T00:33:40.045Z,2.47
2018-12-29T00:38:47.139Z,2.65
2018-12-29T00:49:43.360Z,2.70
2018-12-29T00:54:49.810Z,2.84
2018-12-29T01:00:04.922Z,2.77
2018-12-29T01:05:12.773Z,2.80
2018-12-29T01:10:07.607Z,2.97
2018-12-29T01:15:21.614Z,2.93
2018-12-29T01:20:29.175Z,2.78
2018-12-29T01:25:43.164Z,2.69
2018-12-29T01:30:49.999Z,2.62
2018-12-29T01:36:04.632Z,2.49
2018-12-29T01:41:12.206Z,2.41
2018-12-29T01:52:26.848Z,2.39
2018-12-29T01:57:21.527Z,2.37
2018-12-29T02:08:52.892Z,2.54
2018-12-29T02:14:06.872Z,2.61
2018-12-29T02:19:14.890Z,2.73
2018-12-29T02:25:04.981Z,2.49
2018-12-29T02:30:21.524Z,2.22
2018-12-29T02:35:30.652Z,1.92
2018-12-29T02:57:26.843Z,1.73
2018-12-29T03:02:40.833Z,1.87
2018-12-29T03:07:49.273Z,1.77
2018-12-29T03:13:21.111Z,1.78
2018-12-29T03:24:06.187Z,1.84
2018-12-29T03:29:59.077Z,1.88
2018-12-29T03:35:33.661Z,2.00
2018-12-29T03:46:53.487Z,2.22
2018-12-29T03:58:07.309Z,2.24
2018-12-29T04:09:13.120Z,2.18
2018-12-29T04:14:27.127Z,2.18
2018-12-29T04:19:35.064Z,2.28
2018-12-29T04:24:49.047Z,2.35
2018-12-29T04:29:57.024Z,2.41
2018-12-29T04:35:10.998Z,2.39
2018-12-29T04:40:17.420Z,2.37
2018-12-29T04:45:12.055Z,2.28
2018-12-29T04:50:44.007Z,2.44
2018-12-29T04:55:38.619Z,2.44
2018-12-29T05:01:10.706Z,2.49
2018-12-29T05:06:24.697Z,2.58
2018-12-29T05:17:17.449Z,2.57
2018-12-29T05:22:25.483Z,2.33
2018-12-29T05:27:39.479Z,2.29
2018-12-29T05:32:46.859Z,2.10
2018-12-29T05:37:54.911Z,2.00
2018-12-29T05:43:06.135Z,2.11
2018-12-29T05:48:20.153Z,2.07
2018-12-29T05:53:27.593Z,2.08
2018-12-29T05:58:41.582Z,2.20
2018-12-29T06:03:48.800Z,2.18
2018-12-29T06:09:04.263Z,1.99
2018-12-29T06:19:48.898Z,2.20
2018-12-29T06:24:43.544Z,2.26
2018-12-29T06:46:40.993Z,2.70
2018-12-29T06:51:54.357Z,2.57
2018-12-29T06:57:01.969Z,2.66
2018-12-29T07:02:16.033Z,2.83
2018-12-29T07:24:12.495Z,3.03
2018-12-29T07:29:26.531Z,3.06
2018-12-29T07:34:34.627Z,3.11
2018-12-29T07:39:29.234Z,3.11
2018-12-29T07:50:53.699Z,3.16
2018-12-29T07:56:07.680Z,3.18
2018-12-29T08:01:39.943Z,3.16
2018-12-29T08:06:59.595Z,3.17
2018-12-29T08:11:54.232Z,3.18
2018-12-29T08:17:08.271Z,3.15
2018-12-29T08:22:21.811Z,3.04
2018-12-29T08:33:06.980Z,2.99
2018-12-29T08:38:38.700Z,3.11
2018-12-29T08:43:52.682Z,3.28
2018-12-29T08:54:29.026Z,2.51
2018-12-29T08:59:43.053Z,2.39
2018-12-29T09:10:09.104Z,2.58
2018-12-29T09:15:23.846Z,2.57
2018-12-29T09:20:18.502Z,2.56
2018-12-29T09:25:32.603Z,2.60
2018-12-29T09:30:46.587Z,2.62
2018-12-29T09:35:41.180Z,2.74
2018-12-29T09:40:51.858Z,2.80
2018-12-29T09:46:10.505Z,2.80
2018-12-29T09:57:27.284Z,2.73
2018-12-29T10:02:34.735Z,2.95
2018-12-29T10:07:48.725Z,2.80
2018-12-29T10:12:56.821Z,2.89
2018-12-29T10:18:10.795Z,2.85
2018-12-29T10:23:19.185Z,2.90
2018-12-29T10:28:33.172Z,2.74
2018-12-29T10:33:27.797Z,2.67
2018-12-29T10:38:34.215Z,2.67
2018-12-29T10:43:41.465Z,2.72
2018-12-29T10:48:55.442Z,3.00
2018-12-29T10:54:04.459Z,3.08
2018-12-29T10:59:18.521Z,3.14
2018-12-29T11:04:25.523Z,3.08
2018-12-29T11:09:39.508Z,3.20
2018-12-29T11:14:47.727Z,3.19
2018-12-29T11:20:01.695Z,3.31
2018-12-29T11:25:08.847Z,3.21
2018-12-29T11:30:23.233Z,3.27
2018-12-29T11:35:29.728Z,3.23
2018-12-29T11:40:37.923Z,3.46
2018-12-29T11:45:51.972Z,3.33
2018-12-29T11:50:59.737Z,3.25
2018-12-29T11:55:54.640Z,3.43
2018-12-29T12:01:08.622Z,3.80
2018-12-29T12:06:05.037Z,3.96
2018-12-29T12:11:19.146Z,4.05
2018-12-29T12:16:33.188Z,4.05
2018-12-29T12:21:40.439Z,4.00
2018-12-29T12:26:54.100Z,3.90
2018-12-29T12:32:00.604Z,3.92
2018-12-29T12:37:09.038Z,4.17
2018-12-29T12:42:17.106Z,4.13
2018-12-29T12:47:25.359Z,4.32
2018-12-29T12:52:39.399Z,4.41
2018-12-29T12:57:46.993Z,4.36
2018-12-29T13:03:01.346Z,4.12
2018-12-29T13:07:56.007Z,4.16
2018-12-29T13:13:10.239Z,4.06
2018-12-29T13:18:24.273Z,4.12
2018-12-29T13:23:31.986Z,4.27
2018-12-29T13:28:50.890Z,4.24
2018-12-29T13:34:04.952Z,4.22
2018-12-29T13:38:59.586Z,4.29
2018-12-29T13:44:10.191Z,4.36
2018-12-29T13:49:24.181Z,4.36
2018-12-29T13:54:32.386Z,4.37
2018-12-29T13:59:48.760Z,4.44
2018-12-29T14:04:56.462Z,4.38
2018-12-29T14:10:10.468Z,4.24
2018-12-29T14:15:31.167Z,4.18
2018-12-29T14:20:38.586Z,4.23
2018-12-29T14:25:33.225Z,4.10
2018-12-29T14:30:47.287Z,3.87
2018-12-29T14:35:54.632Z,3.85
2018-12-29T14:41:03.440Z,3.95
2018-12-29T14:46:11.611Z,3.84
2018-12-29T14:51:28.365Z,3.91
2018-12-29T14:56:36.793Z,3.78
2018-12-29T15:01:50.765Z,3.72
2018-12-29T15:06:58.187Z,3.55
2018-12-29T15:12:12.246Z,3.76
2018-12-29T15:17:25.803Z,3.88
2018-12-29T15:22:33.728Z,3.80
2018-12-29T15:27:47.781Z,3.85
2018-12-29T15:33:19.835Z,3.81
2018-12-29T15:38:27.830Z,3.82
2018-12-29T15:43:35.717Z,3.82
2018-12-29T15:48:42.957Z,3.67
2018-12-29T15:54:23.984Z,3.43
2018-12-29T15:59:32.129Z,3.48
2018-12-29T16:04:46.113Z,3.56
2018-12-29T16:09:53.964Z,3.60
2018-12-29T16:15:08.074Z,3.62
2018-12-29T16:20:15.430Z,3.55
2018-12-29T16:25:29.776Z,3.49
2018-12-29T16:35:57.255Z,3.42
2018-12-29T16:40:57.829Z,3.35
2018-12-29T16:46:07.671Z,3.35
2018-12-29T16:51:14.727Z,3.47
2018-12-29T16:56:28.996Z,3.25
2018-12-29T17:01:36.861Z,3.27
2018-12-29T17:06:31.523Z,3.16
2018-12-29T17:11:52.296Z,3.12
2018-12-29T17:16:57.776Z,3.09
2018-12-29T17:22:11.881Z,3.10
2018-12-29T17:27:20.076Z,3.02
2018-12-29T17:32:36.395Z,2.90
2018-12-29T17:37:43.789Z,2.77
2018-12-29T17:42:51.772Z,2.84
2018-12-29T17:47:46.401Z,2.78
2018-12-29T17:58:18.005Z,2.77
2018-12-29T18:03:26.061Z,2.61
2018-12-29T18:08:41.789Z,2.62
2018-12-29T18:13:50.036Z,2.59
2018-12-29T18:19:04.221Z,2.89
2018-12-29T18:24:15.025Z,2.72
2018-12-29T18:29:29.084Z,2.58
2018-12-29T18:34:38.400Z,2.64
2018-12-29T18:39:52.465Z,2.49
2018-12-29T18:45:00.999Z,2.47
2018-12-29T18:50:15.012Z,2.28
2018-12-29T18:55:22.943Z,2.26
2018-12-29T19:00:37.212Z,2.14
2018-12-29T19:05:45.088Z,2.17
2018-12-29T19:10:59.086Z,2.22
2018-12-29T19:16:06.322Z,2.08
2018-12-29T19:21:21.231Z,1.96
2018-12-29T19:26:16.725Z,2.09
2018-12-29T19:31:32.452Z,2.14
2018-12-29T19:36:28.919Z,2.36
2018-12-29T19:41:38.217Z,2.24
2018-12-29T19:46:52.195Z,2.06
2018-12-29T19:51:59.441Z,2.08
2018-12-29T19:56:54.448Z,2.04
2018-12-29T20:02:10.158Z,2.02
2018-12-29T20:07:16.977Z,1.99
2018-12-29T20:12:11.773Z,1.89
2018-12-29T20:17:25.760Z,1.84
2018-12-29T20:22:20.594Z,1.90
2018-12-29T20:27:34.580Z,1.96
2018-12-29T20:32:48.837Z,2.06
2018-12-29T20:37:56.346Z,1.94
2018-12-29T20:43:03.161Z,1.95
2018-12-29T20:48:17.151Z,2.11
2018-12-29T20:53:25.634Z,2.19
2018-12-29T20:58:39.698Z,2.22
2018-12-29T21:03:47.860Z,2.12
2018-12-29T21:09:02.233Z,2.23
2018-12-29T21:14:10.239Z,2.13
2018-12-29T21:19:24.233Z,2.05
2018-12-29T21:24:32.337Z,2.01
2018-12-29T21:29:46.360Z,2.10
2018-12-29T21:34:53.194Z,2.08
2018-12-29T21:40:07.318Z,2.20
2018-12-29T21:45:21.319Z,2.21
2018-12-29T21:50:28.750Z,2.26
2018-12-29T21:55:43.394Z,2.25
2018-12-29T22:00:57.951Z,2.31
2018-12-29T22:06:05.924Z,2.33
2018-12-29T22:11:19.899Z,2.20
2018-12-29T22:16:27.860Z,2.34
2018-12-29T22:21:41.842Z,2.47
2018-12-29T22:26:52.705Z,2.48
2018-12-29T22:32:06.699Z,2.52
2018-12-29T22:37:23.513Z,2.55
2018-12-29T22:42:31.654Z,2.45
2018-12-29T22:47:45.644Z,2.68
2018-12-29T22:52:54.051Z,2.71
2018-12-29T22:58:08.786Z,2.80
2018-12-29T23:03:17.493Z,2.83
2018-12-29T23:08:33.429Z,2.82
2018-12-29T23:13:41.575Z,2.80
2018-12-29T23:18:36.313Z,2.81
2018-12-29T23:23:50.385Z,2.69
2018-12-29T23:28:57.764Z,2.90
2018-12-29T23:34:11.781Z,2.97
2018-12-29T23:39:20.336Z,2.97
2018-12-29T23:44:34.674Z,2.84
2018-12-29T23:49:42.734Z,2.94
2018-12-29T23:54:57.101Z,2.99
